createdAt,value
2023-04-17T00:00:37.786Z,89.65
2023-04-17T00:03:05.649Z,90.23
2023-04-17T00:05:33.739Z,89.85
2023-04-17T00:08:01.531Z,90.21
2023-04-17T00:10:29.157Z,89.80
2023-04-17T00:12:57.055Z,89.95
2023-04-17T00:15:24.789Z,89.96
2023-04-17T00:17:53.885Z,90.36
2023-04-17T00:20:21.535Z,90.01
2023-04-17T00:22:49.390Z,90.13
2023-04-17T00:25:16.976Z,90.34
2023-04-17T00:27:44.821Z,89.78
2023-04-17T00:30:12.999Z,90.20
2023-04-17T00:32:40.783Z,90.27
2023-04-17T00:35:10.476Z,89.89
2023-04-17T00:37:38.204Z,90.29
2023-04-17T00:40:06.840Z,89.86
2023-04-17T00:42:34.626Z,89.83
2023-04-17T00:45:02.244Z,90.43
2023-04-17T00:47:30.145Z,89.99
2023-04-17T00:49:58.349Z,90.45
2023-04-17T00:52:30.833Z,90.27
2023-04-17T00:54:59.818Z,90.46
2023-04-17T00:57:28.055Z,89.86
2023-04-17T00:59:57.700Z,90.29
2023-04-17T01:02:26.351Z,90.55
2023-04-17T01:04:54.083Z,90.04
2023-04-17T01:07:22.209Z,90.24
2023-04-17T01:09:51.172Z,90.42
2023-04-17T01:12:20.592Z,89.94
2023-04-17T01:14:50.495Z,90.26
2023-04-17T01:17:19.481Z,90.09
2023-04-17T01:19:48.304Z,90.17
2023-04-17T01:22:17.263Z,90.21
2023-04-17T01:24:46.782Z,90.26
2023-04-17T01:27:15.225Z,90.29
2023-04-17T01:29:45.377Z,90.26
2023-04-17T01:32:13.229Z,90.70
2023-04-17T01:34:40.823Z,90.85
2023-04-17T01:37:08.442Z,90.73
2023-04-17T01:39:37.319Z,90.58
2023-04-17T01:42:06.652Z,90.60
2023-04-17T01:44:34.397Z,91.21
2023-04-17T01:47:02.034Z,90.80
2023-04-17T01:49:30.706Z,90.88
2023-04-17T01:51:58.326Z,90.97
2023-04-17T01:54:26.550Z,90.45
2023-04-17T01:56:54.190Z,91.09
2023-04-17T01:59:24.137Z,91.03
2023-04-17T02:01:52.541Z,90.56
2023-04-17T02:04:20.636Z,90.74
2023-04-17T02:06:48.270Z,90.71
2023-04-17T02:09:17.739Z,90.46
2023-04-17T02:11:45.726Z,90.42
2023-04-17T02:14:13.441Z,90.74
2023-04-17T02:16:45.984Z,90.66
2023-04-17T02:19:14.044Z,90.28
2023-04-17T02:21:42.156Z,90.57
2023-04-17T02:24:10.132Z,90.36
2023-04-17T02:26:37.759Z,90.35
2023-04-17T02:29:06.335Z,89.96
2023-04-17T02:31:34.113Z,89.73
2023-04-17T02:34:03.475Z,89.88
2023-04-17T02:36:31.312Z,90.55
2023-04-17T02:38:59.135Z,90.17
2023-04-17T02:41:26.768Z,90.10
2023-04-17T02:43:55.088Z,90.25
2023-04-17T02:46:22.722Z,89.83
2023-04-17T02:48:50.338Z,90.28
2023-04-17T02:51:19.410Z,90.77
2023-04-17T02:53:49.062Z,90.56
2023-04-17T02:56:16.774Z,90.57
2023-04-17T02:58:45.547Z,90.41
2023-04-17T03:01:13.368Z,89.83
2023-04-17T03:03:45.136Z,90.13
2023-04-17T03:06:15.381Z,90.11
2023-04-17T03:08:44.540Z,90.44
2023-04-17T03:11:12.168Z,90.19
2023-04-17T03:13:40.052Z,90.40
2023-04-17T03:16:08.406Z,89.89
2023-04-17T03:18:40.942Z,89.75
2023-04-17T03:21:09.027Z,90.09
2023-04-17T03:23:37.066Z,90.24
2023-04-17T03:26:08.868Z,90.03
2023-04-17T03:28:37.436Z,90.27
2023-04-17T03:31:06.470Z,90.24
2023-04-17T03:33:35.112Z,89.96
2023-04-17T03:36:03.128Z,89.98
2023-04-17T03:38:31.476Z,89.71
2023-04-17T03:40:59.346Z,89.55
2023-04-17T03:43:29.012Z,90.19
2023-04-17T03:45:56.879Z,89.86
2023-04-17T03:48:24.740Z,90.22
2023-04-17T03:50:53.165Z,89.85
2023-04-17T03:53:21.236Z,89.73
2023-04-17T03:55:50.160Z,90.11
2023-04-17T03:58:29.368Z,89.89
2023-04-17T04:00:58.920Z,90.14
2023-04-17T04:03:31.281Z,90.41
2023-04-17T04:06:00.251Z,90.50
2023-04-17T04:08:27.948Z,90.61
2023-04-17T04:10:55.998Z,90.07
2023-04-17T04:13:35.118Z,90.05
2023-04-17T04:16:04.672Z,90.03
2023-04-17T04:18:34.884Z,89.75
2023-04-17T04:21:03.249Z,89.69
2023-04-17T04:23:37.559Z,89.70
2023-04-17T04:26:05.386Z,89.87
2023-04-17T04:28:40.599Z,90.30
2023-04-17T04:31:18.675Z,90.52
2023-04-17T04:33:47.704Z,90.96
2023-04-17T04:36:20.553Z,90.91
2023-04-17T04:38:53.651Z,90.69
2023-04-17T04:41:29.868Z,90.42
2023-04-17T04:43:59.686Z,90.34
2023-04-17T04:46:28.273Z,90.07
2023-04-17T04:48:56.604Z,90.25
2023-04-17T04:51:26.526Z,89.89
2023-04-17T04:53:54.927Z,90.05
2023-04-17T04:56:24.168Z,90.18
2023-04-17T04:58:51.910Z,90.05
2023-04-17T05:01:22.613Z,89.84
2023-04-17T05:03:50.939Z,90.18
2023-04-17T05:06:24.018Z,90.36
2023-04-17T05:08:58.718Z,89.77
2023-04-17T05:11:26.864Z,89.55
2023-04-17T05:13:54.600Z,88.26
2023-04-17T05:16:28.293Z,88.37
2023-04-17T05:18:56.842Z,88.63
2023-04-17T05:21:39.754Z,87.89
2023-04-17T05:24:09.220Z,87.97
2023-04-17T05:26:36.991Z,88.05
2023-04-17T05:29:06.129Z,87.89
2023-04-17T05:31:36.310Z,87.93
2023-04-17T05:34:08.886Z,88.42
2023-04-17T05:36:36.747Z,88.34
2023-04-17T05:39:05.987Z,88.33
2023-04-17T05:41:33.715Z,88.24
2023-04-17T05:44:01.386Z,88.44
2023-04-17T05:46:29.166Z,88.31
2023-04-17T05:48:58.283Z,88.35
2023-04-17T05:51:26.203Z,88.13
2023-04-17T05:53:54.232Z,87.76
2023-04-17T05:56:23.309Z,87.83
2023-04-17T05:58:50.910Z,87.72
2023-04-17T06:01:22.881Z,87.09
2023-04-17T06:03:53.906Z,87.02
2023-04-17T06:06:28.484Z,87.78
2023-04-17T06:08:58.719Z,87.68
2023-04-17T06:11:26.333Z,87.57
2023-04-17T06:13:54.609Z,87.34
2023-04-17T06:16:22.826Z,87.32
2023-04-17T06:18:50.909Z,87.35
2023-04-17T06:21:18.804Z,86.85
2023-04-17T06:23:47.720Z,86.94
2023-04-17T06:26:17.917Z,87.00
2023-04-17T06:28:45.541Z,87.10
2023-04-17T06:31:14.037Z,86.84
2023-04-17T06:33:41.677Z,86.64
2023-04-17T06:36:09.953Z,86.95
2023-04-17T06:38:47.774Z,86.66
2023-04-17T06:41:17.371Z,86.19
2023-04-17T06:43:45.016Z,86.73
2023-04-17T06:46:16.051Z,86.26
2023-04-17T06:48:43.649Z,85.37
2023-04-17T06:51:11.243Z,85.37
2023-04-17T06:53:38.847Z,84.93
2023-04-17T06:56:08.073Z,85.69
2023-04-17T06:58:42.204Z,85.90
2023-04-17T07:01:09.819Z,84.73
2023-04-17T07:03:37.849Z,83.38
2023-04-17T07:06:05.831Z,83.52
2023-04-17T07:08:33.785Z,83.18
2023-04-17T07:11:02.345Z,83.49
2023-04-17T07:13:33.261Z,83.59
2023-04-17T07:16:01.394Z,82.96
2023-04-17T07:18:30.316Z,82.51
2023-04-17T07:20:57.923Z,82.13
2023-04-17T07:23:25.899Z,82.15
2023-04-17T07:25:53.522Z,81.89
2023-04-17T07:28:21.448Z,82.11
2023-04-17T07:30:50.383Z,81.16
2023-04-17T07:33:18.116Z,80.10
2023-04-17T07:35:45.721Z,79.96
2023-04-17T07:38:13.590Z,80.68
2023-04-17T07:40:41.253Z,80.25
2023-04-17T07:43:08.969Z,80.05
2023-04-17T07:45:38.553Z,80.23
2023-04-17T07:48:09.587Z,79.67
2023-04-17T07:50:37.314Z,79.78
2023-04-17T07:53:05.052Z,79.62
2023-04-17T07:55:33.081Z,79.37
2023-04-17T07:58:03.443Z,80.34
2023-04-17T08:00:31.080Z,80.30
2023-04-17T08:02:59.395Z,79.98
2023-04-17T08:05:28.546Z,79.67
2023-04-17T08:07:56.443Z,79.24
2023-04-17T08:10:24.058Z,78.60
2023-04-17T08:12:51.933Z,77.79
2023-04-17T08:15:19.685Z,77.40
2023-04-17T08:17:47.451Z,77.35
2023-04-17T08:20:15.086Z,77.16
2023-04-17T08:22:45.887Z,77.05
2023-04-17T08:25:14.360Z,75.36
2023-04-17T08:27:43.550Z,74.34
2023-04-17T08:30:14.936Z,73.97
2023-04-17T08:32:46.480Z,74.97
2023-04-17T08:35:17.042Z,74.30
2023-04-17T08:37:47.385Z,74.37
2023-04-17T08:40:15.947Z,73.13
2023-04-17T08:42:44.396Z,73.38
2023-04-17T08:45:14.013Z,73.36
2023-04-17T08:47:42.975Z,73.51
2023-04-17T08:50:12.434Z,72.83
2023-04-17T08:52:42.555Z,72.67
2023-04-17T08:55:13.919Z,72.06
2023-04-17T08:57:59.225Z,70.53
2023-04-17T09:00:28.651Z,69.32
2023-04-17T09:02:57.997Z,65.48
2023-04-17T09:05:30.117Z,64.21
2023-04-17T09:08:10.148Z,66.76
2023-04-17T09:10:40.204Z,65.14
2023-04-17T09:13:08.530Z,64.50
2023-04-17T09:15:37.200Z,63.77
2023-04-17T09:18:06.364Z,64.08
2023-04-17T09:20:48.826Z,62.58
2023-04-17T09:23:16.952Z,61.67
2023-04-17T09:25:46.111Z,60.74
2023-04-17T09:28:16.224Z,62.45
2023-04-17T09:30:44.422Z,60.24
2023-04-17T09:33:13.034Z,59.02
2023-04-17T09:35:40.700Z,59.40
2023-04-17T09:38:08.612Z,59.39
2023-04-17T09:40:40.608Z,57.98
2023-04-17T09:43:10.982Z,57.95
2023-04-17T09:45:42.923Z,59.41
2023-04-17T09:48:12.222Z,57.70
2023-04-17T09:50:40.503Z,59.44
2023-04-17T09:53:09.354Z,59.46
2023-04-17T09:55:37.993Z,60.71
2023-04-17T09:58:07.983Z,61.60
2023-04-17T10:00:38.611Z,62.82
2023-04-17T10:03:08.335Z,60.82
2023-04-17T10:05:36.779Z,60.18
2023-04-17T10:08:05.325Z,59.94
2023-04-17T10:10:34.731Z,61.04
2023-04-17T10:13:04.223Z,59.71
2023-04-17T10:15:33.912Z,59.36
2023-04-17T10:18:21.459Z,59.75
2023-04-17T10:20:50.062Z,57.54
2023-04-17T10:23:36.675Z,56.79
2023-04-17T10:26:43.108Z,56.32
2023-04-17T10:29:12.768Z,56.11
2023-04-17T10:32:25.841Z,56.00
2023-04-17T10:34:57.014Z,56.60
2023-04-17T10:38:06.081Z,56.66
2023-04-17T10:40:35.557Z,57.36
2023-04-17T10:43:05.139Z,58.66
2023-04-17T10:45:55.378Z,58.73
2023-04-17T10:48:27.769Z,59.40
2023-04-17T10:50:57.563Z,59.58
2023-04-17T10:53:42.477Z,60.36
2023-04-17T10:56:11.604Z,58.57
2023-04-17T10:58:40.812Z,58.29
2023-04-17T11:01:12.336Z,59.50
2023-04-17T11:03:41.752Z,59.20
2023-04-17T11:06:13.188Z,58.24
2023-04-17T11:08:42.981Z,58.08
2023-04-17T11:11:12.280Z,59.63
2023-04-17T11:13:41.968Z,57.35
2023-04-17T11:16:10.523Z,55.96
2023-04-17T11:18:38.722Z,56.89
2023-04-17T11:21:06.834Z,55.32
2023-04-17T11:23:36.168Z,55.97
2023-04-17T11:26:03.935Z,54.97
2023-04-17T11:28:31.769Z,54.69
2023-04-17T11:30:59.473Z,53.06
2023-04-17T11:33:27.220Z,53.42
2023-04-17T11:35:55.392Z,53.87
2023-04-17T11:38:24.329Z,53.65
2023-04-17T11:40:54.862Z,54.74
2023-04-17T11:43:24.246Z,53.61
2023-04-17T11:45:53.297Z,52.55
2023-04-17T11:48:23.388Z,53.60
2023-04-17T11:50:54.972Z,53.51
2023-04-17T11:53:22.569Z,55.03
2023-04-17T11:56:10.424Z,55.88
2023-04-17T11:58:50.971Z,56.07
2023-04-17T12:01:20.529Z,54.26
2023-04-17T12:03:48.813Z,54.97
2023-04-17T12:06:16.784Z,55.80
2023-04-17T12:08:47.070Z,53.76
2023-04-17T12:11:24.607Z,53.94
2023-04-17T12:13:54.060Z,54.78
2023-04-17T12:16:21.993Z,51.95
2023-04-17T12:18:49.610Z,52.05
2023-04-17T12:21:17.257Z,53.66
2023-04-17T12:23:44.851Z,53.09
2023-04-17T12:26:12.825Z,54.40
2023-04-17T12:28:40.572Z,54.12
2023-04-17T12:31:09.779Z,51.43
2023-04-17T12:33:37.482Z,52.16
2023-04-17T12:36:06.413Z,53.80
2023-04-17T12:38:34.107Z,50.95
2023-04-17T12:41:01.910Z,52.43
2023-04-17T12:43:29.518Z,51.65
2023-04-17T12:45:58.379Z,50.84
2023-04-17T12:48:27.417Z,50.93
2023-04-17T12:50:55.301Z,50.95
2023-04-17T12:53:22.888Z,50.15
2023-04-17T12:55:50.556Z,50.42
2023-04-17T12:58:18.301Z,50.16
2023-04-17T13:00:46.505Z,49.91
2023-04-17T13:03:14.182Z,49.93
2023-04-17T13:05:43.417Z,49.96
2023-04-17T13:08:14.865Z,52.50
2023-04-17T13:10:42.762Z,51.80
2023-04-17T13:13:10.868Z,51.83
2023-04-17T13:15:38.595Z,52.39
2023-04-17T13:18:06.327Z,52.54
2023-04-17T13:20:33.995Z,54.70
2023-04-17T13:23:02.918Z,55.82
2023-04-17T13:25:30.985Z,55.97
2023-04-17T13:27:58.666Z,55.54
2023-04-17T13:30:26.327Z,55.10
2023-04-17T13:32:53.983Z,54.45
2023-04-17T13:35:21.721Z,55.36
2023-04-17T13:37:49.300Z,54.53
2023-04-17T13:40:18.339Z,54.29
2023-04-17T13:42:45.937Z,53.01
2023-04-17T13:45:13.586Z,52.02
2023-04-17T13:47:41.366Z,50.97
2023-04-17T13:50:10.523Z,52.25
2023-04-17T13:52:38.092Z,54.16
2023-04-17T13:55:07.664Z,55.92
2023-04-17T13:57:36.952Z,56.20
2023-04-17T14:00:05.329Z,57.62
2023-04-17T14:02:33.043Z,56.90
2023-04-17T14:05:00.963Z,57.03
2023-04-17T14:07:30.121Z,58.63
2023-04-17T14:09:57.736Z,59.53
2023-04-17T14:12:25.423Z,62.76
2023-04-17T14:14:55.593Z,63.89
2023-04-17T14:17:24.164Z,67.42
2023-04-17T14:19:52.403Z,68.26
2023-04-17T14:22:20.084Z,70.04
2023-04-17T14:24:47.638Z,70.37
2023-04-17T14:27:15.219Z,71.50
2023-04-17T14:29:42.960Z,72.29
2023-04-17T14:32:12.005Z,72.56
2023-04-17T14:34:39.555Z,71.29
2023-04-17T14:37:07.317Z,70.45
2023-04-17T14:39:35.012Z,71.44
2023-04-17T14:42:02.737Z,71.72
2023-04-17T14:44:30.344Z,72.31
2023-04-17T14:46:58.331Z,70.08
2023-04-17T14:49:27.347Z,69.92
2023-04-17T14:51:55.027Z,69.32
2023-04-17T14:54:22.757Z,67.03
2023-04-17T14:56:50.684Z,66.05
2023-04-17T14:59:18.385Z,66.22
2023-04-17T15:01:47.075Z,66.37
2023-04-17T15:04:15.134Z,65.99
2023-04-17T15:06:44.255Z,66.64
2023-04-17T15:09:12.120Z,67.33
2023-04-17T15:11:39.856Z,64.01
2023-04-17T15:14:07.531Z,63.80
2023-04-17T15:16:35.414Z,64.65
2023-04-17T15:19:03.089Z,63.07
2023-04-17T15:21:31.104Z,61.14
2023-04-17T15:24:00.055Z,60.82
2023-04-17T15:26:27.972Z,59.40
2023-04-17T15:28:55.541Z,59.56
2023-04-17T15:31:23.210Z,60.27
2023-04-17T15:33:51.263Z,61.86
2023-04-17T15:36:18.842Z,62.18
2023-04-17T15:38:46.551Z,62.48
2023-04-17T15:41:15.620Z,61.97
2023-04-17T15:43:43.395Z,60.48
2023-04-17T15:46:11.219Z,59.60
2023-04-17T15:48:39.179Z,60.96
2023-04-17T15:51:07.104Z,61.73
2023-04-17T15:53:34.892Z,61.53
2023-04-17T15:56:02.522Z,61.79
2023-04-17T15:58:31.618Z,59.19
2023-04-17T16:00:59.215Z,57.42
2023-04-17T16:03:27.004Z,55.88
2023-04-17T16:05:54.850Z,54.47
2023-04-17T16:08:22.551Z,53.43
2023-04-17T16:10:50.200Z,52.75
2023-04-17T16:13:17.882Z,51.00
2023-04-17T16:15:46.835Z,51.03
2023-04-17T16:18:14.551Z,51.41
2023-04-17T16:20:42.160Z,51.34
2023-04-17T16:23:09.839Z,51.74
2023-04-17T16:25:37.438Z,49.83
2023-04-17T16:28:05.154Z,51.25
2023-04-17T16:30:33.382Z,50.17
2023-04-17T16:33:02.680Z,50.48
2023-04-17T16:35:30.711Z,51.18
2023-04-17T16:37:58.269Z,51.56
2023-04-17T16:40:26.531Z,52.71
2023-04-17T16:42:54.404Z,54.28
2023-04-17T16:45:22.112Z,55.46
2023-04-17T16:47:49.811Z,56.41
2023-04-17T16:50:18.902Z,57.62
2023-04-17T16:52:46.600Z,58.27
2023-04-17T16:55:14.184Z,59.52
2023-04-17T16:57:43.662Z,60.51
2023-04-17T17:00:12.550Z,61.02
2023-04-17T17:02:40.406Z,61.56
2023-04-17T17:05:09.203Z,61.49
2023-04-17T17:07:38.251Z,61.45
2023-04-17T17:10:07.097Z,60.95
2023-04-17T17:12:34.849Z,62.31
2023-04-17T17:15:03.656Z,63.56
2023-04-17T17:17:31.673Z,64.30
2023-04-17T17:20:00.083Z,64.60
2023-04-17T17:22:27.678Z,65.02
2023-04-17T17:24:56.735Z,65.33
2023-04-17T17:27:24.295Z,65.31
2023-04-17T17:29:55.328Z,65.41
2023-04-17T17:32:23.252Z,65.44
2023-04-17T17:34:52.584Z,66.00
2023-04-17T17:37:20.408Z,65.75
2023-04-17T17:39:48.213Z,65.84
2023-04-17T17:42:17.120Z,65.73
2023-04-17T17:44:44.807Z,66.23
2023-04-17T17:47:12.350Z,66.86
2023-04-17T17:49:40.091Z,66.92
2023-04-17T17:52:07.673Z,67.61
2023-04-17T17:54:37.035Z,68.11
2023-04-17T17:57:04.971Z,67.63
2023-04-17T17:59:34.482Z,68.96
2023-04-17T18:02:02.642Z,69.50
2023-04-17T18:04:30.460Z,70.61
2023-04-17T18:06:58.146Z,71.37
2023-04-17T18:09:25.805Z,72.41
2023-04-17T18:11:53.406Z,73.89
2023-04-17T18:14:21.082Z,73.93
2023-04-17T18:16:50.306Z,74.77
2023-04-17T18:19:18.205Z,75.20
2023-04-17T18:21:47.294Z,75.76
2023-04-17T18:24:15.743Z,76.44
2023-04-17T18:26:43.400Z,76.92
2023-04-17T18:29:11.127Z,77.06
2023-04-17T18:31:38.784Z,77.98
2023-04-17T18:34:07.881Z,78.50
2023-04-17T18:36:35.574Z,78.20
2023-04-17T18:39:03.263Z,78.18
2023-04-17T18:41:30.806Z,78.48
2023-04-17T18:43:58.361Z,80.08
2023-04-17T18:46:27.051Z,79.54
2023-04-17T18:48:54.934Z,79.65
2023-04-17T18:51:24.050Z,80.30
2023-04-17T18:53:51.729Z,80.91
2023-04-17T18:56:19.336Z,80.76
2023-04-17T18:58:46.942Z,81.15
2023-04-17T19:01:14.540Z,81.08
2023-04-17T19:03:42.142Z,80.99
2023-04-17T19:06:09.855Z,81.16
2023-04-17T19:08:39.474Z,80.89
2023-04-17T19:11:07.103Z,80.80
2023-04-17T19:13:34.789Z,80.62
2023-04-17T19:16:02.441Z,80.74
2023-04-17T19:18:30.152Z,80.31
2023-04-17T19:20:57.730Z,80.54
2023-04-17T19:23:25.685Z,80.83
2023-04-17T19:25:55.116Z,80.95
2023-04-17T19:28:22.939Z,80.74
2023-04-17T19:30:50.578Z,80.60
2023-04-17T19:33:18.593Z,80.24
2023-04-17T19:35:46.205Z,80.33
2023-04-17T19:38:16.245Z,80.25
2023-04-17T19:40:48.701Z,80.48
2023-04-17T19:43:17.853Z,80.77
2023-04-17T19:45:45.564Z,80.41
2023-04-17T19:48:13.194Z,80.75
2023-04-17T19:50:40.780Z,80.51
2023-04-17T19:53:08.343Z,80.71
2023-04-17T19:55:36.062Z,80.55
2023-04-17T19:58:03.599Z,80.56
2023-04-17T20:00:32.771Z,80.71
2023-04-17T20:03:00.449Z,80.73
2023-04-17T20:05:28.418Z,80.57
2023-04-17T20:07:56.041Z,80.64
2023-04-17T20:10:24.007Z,80.71
2023-04-17T20:12:51.572Z,80.92
2023-04-17T20:15:21.909Z,81.01
2023-04-17T20:17:51.003Z,80.97
2023-04-17T20:20:18.847Z,81.15
2023-04-17T20:22:46.451Z,81.33
2023-04-17T20:25:14.849Z,81.08
2023-04-17T20:27:42.429Z,81.21
2023-04-17T20:30:10.832Z,81.81
2023-04-17T20:32:38.553Z,81.37
2023-04-17T20:35:08.334Z,81.51
2023-04-17T20:37:35.925Z,81.61
2023-04-17T20:40:05.836Z,81.84
2023-04-17T20:42:33.411Z,82.02
2023-04-17T20:45:01.283Z,81.80
2023-04-17T20:47:28.912Z,82.22
2023-04-17T20:49:56.619Z,82.09
2023-04-17T20:52:25.614Z,82.11
2023-04-17T20:54:53.262Z,82.46
2023-04-17T20:57:20.832Z,82.21
2023-04-17T20:59:48.596Z,82.78
2023-04-17T21:02:16.791Z,82.56
2023-04-17T21:04:44.926Z,82.92
2023-04-17T21:07:12.651Z,83.05
2023-04-17T21:09:41.844Z,82.87
2023-04-17T21:12:09.845Z,83.04
2023-04-17T21:14:37.680Z,83.26
2023-04-17T21:17:05.686Z,83.18
2023-04-17T21:19:36.208Z,83.29
2023-04-17T21:22:04.088Z,82.92
2023-04-17T21:24:31.644Z,83.43
2023-04-17T21:27:01.459Z,83.44
2023-04-17T21:29:29.851Z,83.41
2023-04-17T21:31:57.849Z,83.84
2023-04-17T21:34:25.932Z,84.23
2023-04-17T21:36:54.781Z,83.91
2023-04-17T21:39:22.561Z,83.99
2023-04-17T21:41:50.363Z,83.70
2023-04-17T21:44:19.452Z,84.11
2023-04-17T21:46:47.245Z,84.32
2023-04-17T21:49:14.922Z,84.41
2023-04-17T21:51:42.700Z,84.72
2023-04-17T21:54:10.662Z,84.90
2023-04-17T21:56:38.592Z,84.65
2023-04-17T21:59:06.148Z,84.73
2023-04-17T22:01:35.256Z,84.83
2023-04-17T22:04:03.038Z,85.00
2023-04-17T22:06:30.857Z,85.42
2023-04-17T22:08:58.419Z,85.18
2023-04-17T22:11:26.115Z,85.16
2023-04-17T22:13:53.662Z,85.72
2023-04-17T22:16:21.498Z,85.55
2023-04-17T22:18:50.396Z,85.80
2023-04-17T22:21:18.106Z,85.88
2023-04-17T22:23:45.888Z,85.90
2023-04-17T22:26:13.533Z,85.88
2023-04-17T22:28:41.091Z,86.17
2023-04-17T22:31:08.873Z,86.03
2023-04-17T22:33:36.562Z,86.36
2023-04-17T22:36:05.854Z,86.74
2023-04-17T22:38:33.421Z,86.83
2023-04-17T22:41:01.325Z,86.96
2023-04-17T22:43:28.895Z,87.10
2023-04-17T22:45:56.778Z,87.25
2023-04-17T22:48:24.721Z,87.30
2023-04-17T22:50:52.749Z,86.76
2023-04-17T22:53:22.411Z,87.07
2023-04-17T22:56:00.853Z,86.87
2023-04-17T22:58:28.423Z,87.03
2023-04-17T23:00:55.950Z,86.36
2023-04-17T23:03:23.814Z,86.35
2023-04-17T23:05:51.503Z,86.48
2023-04-17T23:08:19.310Z,86.82
2023-04-17T23:10:48.508Z,86.63
2023-04-17T23:13:16.112Z,86.51
2023-04-17T23:15:43.799Z,86.74
2023-04-17T23:18:11.562Z,87.13
2023-04-17T23:20:39.272Z,86.95
2023-04-17T23:23:06.818Z,86.79
2023-04-17T23:25:34.662Z,86.94
2023-04-17T23:28:03.562Z,87.09
2023-04-17T23:30:31.353Z,87.31
2023-04-17T23:32:59.061Z,86.78
2023-04-17T23:35:26.794Z,87.00
2023-04-17T23:37:54.380Z,87.04
2023-04-17T23:40:22.175Z,86.80
2023-04-17T23:42:49.768Z,86.76
2023-04-17T23:45:18.875Z,86.83
2023-04-17T23:47:46.760Z,86.81
2023-04-17T23:50:14.720Z,86.95
2023-04-17T23:52:42.412Z,86.90
2023-04-17T23:55:10.136Z,86.86
2023-04-17T23:57:38.527Z,86.53
